sensor_id;sensor_type;location;lat;lon;timestamp;pressure;altitude;pressure_sealevel;temperature;humidity
61119;BME280;51448;51.660;5.824;2024-02-26T00:00:34;99794.44;;;6.31;87.31
61119;BME280;51448;51.660;5.824;2024-02-26T00:03:02;99801.03;;;6.30;87.41
61119;BME280;51448;51.660;5.824;2024-02-26T00:05:30;99804.59;;;6.31;87.36
61119;BME280;51448;51.660;5.824;2024-02-26T00:07:59;99799.41;;;6.29;87.70
61119;BME280;51448;51.660;5.824;2024-02-26T00:10:31;99803.75;;;6.30;87.82
61119;BME280;51448;51.660;5.824;2024-02-26T00:12:59;99800.88;;;6.36;87.35
61119;BME280;51448;51.660;5.824;2024-02-26T00:15:26;99793.97;;;6.38;86.92
61119;BME280;51448;51.660;5.824;2024-02-26T00:17:55;99784.63;;;6.39;86.52
61119;BME280;51448;51.660;5.824;2024-02-26T00:20:23;99787.84;;;6.41;86.50
61119;BME280;51448;51.660;5.824;2024-02-26T00:22:50;99803.50;;;6.41;86.40
61119;BME280;51448;51.660;5.824;2024-02-26T00:25:18;99806.88;;;6.38;86.82
61119;BME280;51448;51.660;5.824;2024-02-26T00:27:45;99806.88;;;6.38;87.22
61119;BME280;51448;51.660;5.824;2024-02-26T00:30:13;99814.28;;;6.37;87.33
61119;BME280;51448;51.660;5.824;2024-02-26T00:32:41;99812.69;;;6.36;87.65
61119;BME280;51448;51.660;5.824;2024-02-26T00:35:09;99820.56;;;6.38;87.78
61119;BME280;51448;51.660;5.824;2024-02-26T00:37:37;99815.56;;;6.40;87.71
61119;BME280;51448;51.660;5.824;2024-02-26T00:40:05;99821.56;;;6.42;87.62
61119;BME280;51448;51.660;5.824;2024-02-26T00:42:35;99812.22;;;6.43;87.60
61119;BME280;51448;51.660;5.824;2024-02-26T00:45:03;99812.22;;;6.43;87.75
61119;BME280;51448;51.660;5.824;2024-02-26T00:47:31;99814.16;;;6.42;87.69
61119;BME280;51448;51.660;5.824;2024-02-26T00:49:58;99803.81;;;6.39;87.84
61119;BME280;51448;51.660;5.824;2024-02-26T00:52:26;99801.41;;;6.38;87.96
61119;BME280;51448;51.660;5.824;2024-02-26T00:54:53;99793.19;;;6.38;88.31
61119;BME280;51448;51.660;5.824;2024-02-26T00:57:21;99792.53;;;6.41;87.84
61119;BME280;51448;51.660;5.824;2024-02-26T00:59:49;99786.56;;;6.39;87.56
61119;BME280;51448;51.660;5.824;2024-02-26T01:02:18;99784.63;;;6.39;87.63
61119;BME280;51448;51.660;5.824;2024-02-26T01:04:45;99787.69;;;6.38;87.86
61119;BME280;51448;51.660;5.824;2024-02-26T01:07:13;99778.97;;;6.36;87.77
61119;BME280;51448;51.660;5.824;2024-02-26T01:09:42;99784.78;;;6.34;88.01
61119;BME280;51448;51.660;5.824;2024-02-26T01:12:10;99781.56;;;6.32;88.01
61119;BME280;51448;51.660;5.824;2024-02-26T01:14:37;99775.56;;;6.30;87.92
61119;BME280;51448;51.660;5.824;2024-02-26T01:17:05;99776.69;;;6.29;87.90
61119;BME280;51448;51.660;5.824;2024-02-26T01:19:33;99795.06;;;6.28;88.09
61119;BME280;51448;51.660;5.824;2024-02-26T01:22:00;99819.88;;;6.23;88.81
61119;BME280;51448;51.660;5.824;2024-02-26T01:24:29;99819.69;;;6.20;89.30
61119;BME280;51448;51.660;5.824;2024-02-26T01:26:56;99813.56;;;6.23;89.26
61119;BME280;51448;51.660;5.824;2024-02-26T01:29:24;99825.34;;;6.23;89.25
61119;BME280;51448;51.660;5.824;2024-02-26T01:31:52;99833.22;;;6.25;89.50
61119;BME280;51448;51.660;5.824;2024-02-26T01:34:19;99826.34;;;6.27;89.26
61119;BME280;51448;51.660;5.824;2024-02-26T01:36:47;99813.91;;;6.30;88.95
61119;BME280;51448;51.660;5.824;2024-02-26T01:39:15;99819.72;;;6.28;88.82
61119;BME280;51448;51.660;5.824;2024-02-26T01:41:43;99833.75;;;6.27;88.72
61119;BME280;51448;51.660;5.824;2024-02-26T01:44:12;99835.16;;;6.24;88.93
61119;BME280;51448;51.660;5.824;2024-02-26T01:46:41;99837.28;;;6.27;89.00
61119;BME280;51448;51.660;5.824;2024-02-26T01:49:11;99838.09;;;6.28;88.75
61119;BME280;51448;51.660;5.824;2024-02-26T01:51:41;99829.06;;;6.27;89.06
61119;BME280;51448;51.660;5.824;2024-02-26T01:54:11;99831.47;;;6.20;89.36
61119;BME280;51448;51.660;5.824;2024-02-26T01:56:40;99838.03;;;6.19;89.78
61119;BME280;51448;51.660;5.824;2024-02-26T01:59:08;99848.53;;;6.17;90.08
61119;BME280;51448;51.660;5.824;2024-02-26T02:01:38;99842.03;;;6.13;90.14
61119;BME280;51448;51.660;5.824;2024-02-26T02:04:09;99848.28;;;6.05;90.85
61119;BME280;51448;51.660;5.824;2024-02-26T02:06:37;99835.72;;;6.04;91.01
61119;BME280;51448;51.660;5.824;2024-02-26T02:09:06;99841.19;;;6.04;91.13
61119;BME280;51448;51.660;5.824;2024-02-26T02:11:35;99839.41;;;5.99;91.22
61119;BME280;51448;51.660;5.824;2024-02-26T02:14:03;99839.69;;;5.98;91.47
61119;BME280;51448;51.660;5.824;2024-02-26T02:16:30;99850.97;;;5.96;91.89
61119;BME280;51448;51.660;5.824;2024-02-26T02:18:58;99846.13;;;5.93;91.92
61119;BME280;51448;51.660;5.824;2024-02-26T02:21:26;99846.44;;;5.92;92.50
61119;BME280;51448;51.660;5.824;2024-02-26T02:23:54;99853.31;;;5.89;92.62
61119;BME280;51448;51.660;5.824;2024-02-26T02:26:22;99847.03;;;5.89;92.63
61119;BME280;51448;51.660;5.824;2024-02-26T02:28:49;99837.34;;;5.83;93.10
61119;BME280;51448;51.660;5.824;2024-02-26T02:31:17;99838.13;;;5.83;93.27
61119;BME280;51448;51.660;5.824;2024-02-26T02:33:45;99838.44;;;5.81;93.33
61119;BME280;51448;51.660;5.824;2024-02-26T02:36:13;99836.00;;;5.80;93.45
61119;BME280;51448;51.660;5.824;2024-02-26T02:38:50;99832.16;;;5.81;93.60
61119;BME280;51448;51.660;5.824;2024-02-26T02:41:19;99839.06;;;5.78;93.59
61119;BME280;51448;51.660;5.824;2024-02-26T02:43:46;99839.69;;;5.75;94.14
61119;BME280;51448;51.660;5.824;2024-02-26T02:46:14;99834.53;;;5.74;94.18
61119;BME280;51448;51.660;5.824;2024-02-26T02:48:42;99839.69;;;5.75;94.26
61119;BME280;51448;51.660;5.824;2024-02-26T02:51:10;99826.31;;;5.74;94.26
61119;BME280;51448;51.660;5.824;2024-02-26T02:53:38;99837.38;;;5.69;94.57
61119;BME280;51448;51.660;5.824;2024-02-26T02:56:06;99834.97;;;5.67;94.69
61119;BME280;51448;51.660;5.824;2024-02-26T02:58:33;99847.03;;;5.66;94.88
61119;BME280;51448;51.660;5.824;2024-02-26T03:01:01;99842.19;;;5.63;94.88
61119;BME280;51448;51.660;5.824;2024-02-26T03:03:29;99839.44;;;5.63;95.14
61119;BME280;51448;51.660;5.824;2024-02-26T03:05:56;99840.56;;;5.62;95.52
61119;BME280;51448;51.660;5.824;2024-02-26T03:08:24;99837.34;;;5.60;95.86
61119;BME280;51448;51.660;5.824;2024-02-26T03:10:53;99830.53;;;5.58;96.46
61119;BME280;51448;51.660;5.824;2024-02-26T03:13:21;99841.81;;;5.56;96.61
61119;BME280;51448;51.660;5.824;2024-02-26T03:15:48;99848.41;;;5.55;96.67
61119;BME280;51448;51.660;5.824;2024-02-26T03:18:16;99848.41;;;5.55;96.88
61119;BME280;51448;51.660;5.824;2024-02-26T03:20:44;99836.66;;;5.54;96.97
61119;BME280;51448;51.660;5.824;2024-02-26T03:23:11;99833.91;;;5.54;97.27
61119;BME280;51448;51.660;5.824;2024-02-26T03:25:44;99833.59;;;5.56;97.45
61119;BME280;51448;51.660;5.824;2024-02-26T03:28:13;99847.88;;;5.53;97.48
61119;BME280;51448;51.660;5.824;2024-02-26T03:30:41;99840.50;;;5.53;97.61
61119;BME280;51448;51.660;5.824;2024-02-26T03:33:09;99838.44;;;5.59;97.96
61119;BME280;51448;51.660;5.824;2024-02-26T03:35:36;99835.69;;;5.59;97.89
61119;BME280;51448;51.660;5.824;2024-02-26T03:38:04;99829.13;;;5.60;98.07
61119;BME280;51448;51.660;5.824;2024-02-26T03:40:31;99834.59;;;5.60;98.28
61119;BME280;51448;51.660;5.824;2024-02-26T03:42:59;99837.63;;;5.59;98.33
61119;BME280;51448;51.660;5.824;2024-02-26T03:45:27;99840.88;;;5.61;98.24
61119;BME280;51448;51.660;5.824;2024-02-26T03:47:55;99838.03;;;5.66;98.13
61119;BME280;51448;51.660;5.824;2024-02-26T03:50:22;99838.03;;;5.66;98.26
61119;BME280;51448;51.660;5.824;2024-02-26T03:52:50;99851.19;;;5.64;98.26
61119;BME280;51448;51.660;5.824;2024-02-26T03:55:18;99848.13;;;5.65;98.04
61119;BME280;51448;51.660;5.824;2024-02-26T03:57:52;99852.50;;;5.66;97.87
61119;BME280;51448;51.660;5.824;2024-02-26T04:00:19;99849.78;;;5.66;97.48
61119;BME280;51448;51.660;5.824;2024-02-26T04:02:49;99853.59;;;5.65;97.67
61119;BME280;51448;51.660;5.824;2024-02-26T04:05:17;99858.59;;;5.63;97.86
61119;BME280;51448;51.660;5.824;2024-02-26T04:07:45;99875.34;;;5.62;97.80
61119;BME280;51448;51.660;5.824;2024-02-26T04:10:13;99871.59;;;5.58;97.69
61119;BME280;51448;51.660;5.824;2024-02-26T04:12:41;99864.50;;;5.57;98.02
61119;BME280;51448;51.660;5.824;2024-02-26T04:15:10;99870.59;;;5.53;98.19
61119;BME280;51448;51.660;5.824;2024-02-26T04:17:38;99868.66;;;5.54;98.42
61119;BME280;51448;51.660;5.824;2024-02-26T04:20:06;99866.56;;;5.51;98.47
61119;BME280;51448;51.660;5.824;2024-02-26T04:22:34;99866.34;;;5.47;98.72
61119;BME280;51448;51.660;5.824;2024-02-26T04:25:02;99873.28;;;5.45;99.18
61119;BME280;51448;51.660;5.824;2024-02-26T04:27:30;99861.81;;;5.43;99.19
61119;BME280;51448;51.660;5.824;2024-02-26T04:29:58;99871.34;;;5.45;99.36
61119;BME280;51448;51.660;5.824;2024-02-26T04:32:25;99870.22;;;5.46;99.40
61119;BME280;51448;51.660;5.824;2024-02-26T04:34:53;99878.09;;;5.48;99.15
61119;BME280;51448;51.660;5.824;2024-02-26T04:37:21;99881.16;;;5.46;99.42
61119;BME280;51448;51.660;5.824;2024-02-26T04:39:49;99877.63;;;5.46;99.61
61119;BME280;51448;51.660;5.824;2024-02-26T04:42:17;99885.03;;;5.45;99.78
61119;BME280;51448;51.660;5.824;2024-02-26T04:44:45;99889.97;;;5.43;99.87
61119;BME280;51448;51.660;5.824;2024-02-26T04:47:12;99886.75;;;5.41;99.79
61119;BME280;51448;51.660;5.824;2024-02-26T04:49:41;99894.03;;;5.46;100.00
61119;BME280;51448;51.660;5.824;2024-02-26T04:52:08;99896.28;;;5.44;100.00
61119;BME280;51448;51.660;5.824;2024-02-26T04:54:36;99891.09;;;5.42;100.00
61119;BME280;51448;51.660;5.824;2024-02-26T04:57:04;99888.34;;;5.42;100.00
61119;BME280;51448;51.660;5.824;2024-02-26T04:59:32;99889.97;;;5.43;100.00
61119;BME280;51448;51.660;5.824;2024-02-26T05:01:59;99901.44;;;5.45;100.00
61119;BME280;51448;51.660;5.824;2024-02-26T05:04:27;99895.16;;;5.45;100.00
61119;BME280;51448;51.660;5.824;2024-02-26T05:06:55;99898.06;;;5.48;100.00
61119;BME280;51448;51.660;5.824;2024-02-26T05:09:22;99906.78;;;5.50;100.00
61119;BME280;51448;51.660;5.824;2024-02-26T05:11:50;99902.94;;;5.51;100.00
61119;BME280;51448;51.660;5.824;2024-02-26T05:14:18;99897.16;;;5.53;100.00
61119;BME280;51448;51.660;5.824;2024-02-26T05:16:46;99892.47;;;5.53;100.00
61119;BME280;51448;51.660;5.824;2024-02-26T05:19:14;99893.00;;;5.56;99.83
61119;BME280;51448;51.660;5.824;2024-02-26T05:21:41;99888.94;;;5.53;99.88
61119;BME280;51448;51.660;5.824;2024-02-26T05:24:11;99896.34;;;5.52;100.00
61119;BME280;51448;51.660;5.824;2024-02-26T05:26:38;99891.06;;;5.56;99.89
61119;BME280;51448;51.660;5.824;2024-02-26T05:29:06;99903.13;;;5.55;100.00
61119;BME280;51448;51.660;5.824;2024-02-26T05:31:34;99895.72;;;5.56;100.00
61119;BME280;51448;51.660;5.824;2024-02-26T05:34:01;99898.75;;;5.54;100.00
61119;BME280;51448;51.660;5.824;2024-02-26T05:36:29;99907.50;;;5.56;100.00
61119;BME280;51448;51.660;5.824;2024-02-26T05:39:01;99902.63;;;5.53;99.88
61119;BME280;51448;51.660;5.824;2024-02-26T05:41:29;99910.03;;;5.52;100.00
61119;BME280;51448;51.660;5.824;2024-02-26T05:43:57;99918.22;;;5.52;100.00
61119;BME280;51448;51.660;5.824;2024-02-26T05:46:25;99915.81;;;5.51;100.00
61119;BME280;51448;51.660;5.824;2024-02-26T05:48:54;99922.41;;;5.50;100.00
61119;BME280;51448;51.660;5.824;2024-02-26T05:51:27;99920.59;;;5.45;100.00
61119;BME280;51448;51.660;5.824;2024-02-26T05:53:56;99917.03;;;5.45;100.00
61119;BME280;51448;51.660;5.824;2024-02-26T05:56:25;99918.97;;;5.44;100.00
61119;BME280;51448;51.660;5.824;2024-02-26T05:58:52;99936.19;;;5.45;100.00
61119;BME280;51448;51.660;5.824;2024-02-26T06:01:21;99936.69;;;5.47;100.00
61119;BME280;51448;51.660;5.824;2024-02-26T06:03:49;99943.28;;;5.46;100.00
61119;BME280;51448;51.660;5.824;2024-02-26T06:06:17;99940.06;;;5.44;100.00
61119;BME280;51448;51.660;5.824;2024-02-26T06:08:45;99946.94;;;5.41;100.00
61119;BME280;51448;51.660;5.824;2024-02-26T06:11:13;99935.69;;;5.43;100.00
61119;BME280;51448;51.660;5.824;2024-02-26T06:13:40;99939.84;;;5.40;100.00
61119;BME280;51448;51.660;5.824;2024-02-26T06:16:08;99946.13;;;5.41;100.00
61119;BME280;51448;51.660;5.824;2024-02-26T06:18:35;99950.47;;;5.42;99.63
61119;BME280;51448;51.660;5.824;2024-02-26T06:21:04;99961.25;;;5.38;99.79
61119;BME280;51448;51.660;5.824;2024-02-26T06:23:31;99963.47;;;5.36;100.00
61119;BME280;51448;51.660;5.824;2024-02-26T06:25:59;99944.63;;;5.35;100.00
61119;BME280;51448;51.660;5.824;2024-02-26T06:28:27;99957.19;;;5.36;100.00
61119;BME280;51448;51.660;5.824;2024-02-26T06:30:57;99959.41;;;5.34;100.00
61119;BME280;51448;51.660;5.824;2024-02-26T06:33:25;99964.91;;;5.34;100.00
61119;BME280;51448;51.660;5.824;2024-02-26T06:35:52;99966.63;;;5.30;100.00
61119;BME280;51448;51.660;5.824;2024-02-26T06:38:20;99969.34;;;5.30;100.00
61119;BME280;51448;51.660;5.824;2024-02-26T06:40:48;99973.81;;;5.25;100.00
61119;BME280;51448;51.660;5.824;2024-02-26T06:43:15;99976.03;;;5.23;100.00
61119;BME280;51448;51.660;5.824;2024-02-26T06:45:43;99979.59;;;5.24;100.00
61119;BME280;51448;51.660;5.824;2024-02-26T06:48:10;99979.69;;;5.19;100.00
61119;BME280;51448;51.660;5.824;2024-02-26T06:50:38;99983.22;;;5.19;100.00
61119;BME280;51448;51.660;5.824;2024-02-26T06:53:06;99984.66;;;5.17;100.00
61119;BME280;51448;51.660;5.824;2024-02-26T06:55:34;99986.56;;;5.16;100.00
61119;BME280;51448;51.660;5.824;2024-02-26T06:58:02;99980.91;;;5.13;100.00
61119;BME280;51448;51.660;5.824;2024-02-26T07:00:30;99987.19;;;5.13;100.00
61119;BME280;51448;51.660;5.824;2024-02-26T07:02:57;99986.06;;;5.14;100.00
61119;BME280;51448;51.660;5.824;2024-02-26T07:05:26;99990.72;;;5.14;100.00
61119;BME280;51448;51.660;5.824;2024-02-26T07:07:54;99992.34;;;5.15;100.00
61119;BME280;51448;51.660;5.824;2024-02-26T07:10:22;99997.00;;;5.14;100.00
61119;BME280;51448;51.660;5.824;2024-02-26T07:12:50;100003.28;;;5.15;100.00
61119;BME280;51448;51.660;5.824;2024-02-26T07:15:17;99997.50;;;5.16;100.00
61119;BME280;51448;51.660;5.824;2024-02-26T07:17:46;100008.44;;;5.16;100.00
61119;BME280;51448;51.660;5.824;2024-02-26T07:20:15;99999.16;;;5.17;100.00
61119;BME280;51448;51.660;5.824;2024-02-26T07:22:44;100015.03;;;5.15;100.00
61119;BME280;51448;51.660;5.824;2024-02-26T07:25:11;100015.56;;;5.17;100.00
61119;BME280;51448;51.660;5.824;2024-02-26T07:27:41;100021.53;;;5.19;100.00
61119;BME280;51448;51.660;5.824;2024-02-26T07:30:09;100027.00;;;5.19;100.00
61119;BME280;51448;51.660;5.824;2024-02-26T07:32:39;100029.22;;;5.17;100.00
61119;BME280;51448;51.660;5.824;2024-02-26T07:35:06;100036.31;;;5.18;100.00
61119;BME280;51448;51.660;5.824;2024-02-26T07:37:34;100038.16;;;5.23;100.00
61119;BME280;51448;51.660;5.824;2024-02-26T07:40:03;100034.28;;;5.24;100.00
61119;BME280;51448;51.660;5.824;2024-02-26T07:42:31;100038.94;;;5.23;100.00
61119;BME280;51448;51.660;5.824;2024-02-26T07:44:59;100040.88;;;5.23;100.00
61119;BME280;51448;51.660;5.824;2024-02-26T07:47:26;100035.41;;;5.23;100.00
61119;BME280;51448;51.660;5.824;2024-02-26T07:49:54;100037.63;;;5.21;100.00
61119;BME280;51448;51.660;5.824;2024-02-26T07:52:22;100042.19;;;5.25;100.00
61119;BME280;51448;51.660;5.824;2024-02-26T07:54:50;100054.75;;;5.26;100.00
61119;BME280;51448;51.660;5.824;2024-02-26T07:57:17;100053.94;;;5.26;100.00
61119;BME280;51448;51.660;5.824;2024-02-26T07:59:45;100063.25;;;5.25;100.00
61119;BME280;51448;51.660;5.824;2024-02-26T08:02:17;100064.06;;;5.25;100.00
61119;BME280;51448;51.660;5.824;2024-02-26T08:04:44;100066.50;;;5.27;100.00
61119;BME280;51448;51.660;5.824;2024-02-26T08:07:12;100056.38;;;5.27;100.00
61119;BME280;51448;51.660;5.824;2024-02-26T08:09:40;100066.81;;;5.25;100.00
61119;BME280;51448;51.660;5.824;2024-02-26T08:12:08;100076.34;;;5.28;100.00
61119;BME280;51448;51.660;5.824;2024-02-26T08:14:35;100071.38;;;5.30;100.00
61119;BME280;51448;51.660;5.824;2024-02-26T08:17:03;100080.38;;;5.31;100.00
61119;BME280;51448;51.660;5.824;2024-02-26T08:19:31;100076.03;;;5.30;100.00
61119;BME280;51448;51.660;5.824;2024-02-26T08:21:59;100081.72;;;5.33;100.00
61119;BME280;51448;51.660;5.824;2024-02-26T08:24:30;100090.91;;;5.37;100.00
61119;BME280;51448;51.660;5.824;2024-02-26T08:26:58;100098.31;;;5.37;100.00
61119;BME280;51448;51.660;5.824;2024-02-26T08:29:26;100099.94;;;5.38;100.00
61119;BME280;51448;51.660;5.824;2024-02-26T08:31:53;100101.38;;;5.35;100.00
61119;BME280;51448;51.660;5.824;2024-02-26T08:34:21;100112.81;;;5.37;100.00
61119;BME280;51448;51.660;5.824;2024-02-26T08:36:49;100108.69;;;5.40;100.00
61119;BME280;51448;51.660;5.824;2024-02-26T08:39:18;100115.53;;;5.37;100.00
61119;BME280;51448;51.660;5.824;2024-02-26T08:41:45;100115.25;;;5.39;100.00
61119;BME280;51448;51.660;5.824;2024-02-26T08:44:13;100115.53;;;5.37;100.00
61119;BME280;51448;51.660;5.824;2024-02-26T08:46:41;100116.34;;;5.38;100.00
61119;BME280;51448;51.660;5.824;2024-02-26T08:49:09;100121.53;;;5.39;100.00
61119;BME280;51448;51.660;5.824;2024-02-26T08:51:44;100131.38;;;5.40;100.00
61119;BME280;51448;51.660;5.824;2024-02-26T08:54:12;100129.44;;;5.41;100.00
61119;BME280;51448;51.660;5.824;2024-02-26T08:56:40;100128.31;;;5.42;100.00
61119;BME280;51448;51.660;5.824;2024-02-26T08:59:09;100129.44;;;5.41;100.00
61119;BME280;51448;51.660;5.824;2024-02-26T09:01:36;100132.19;;;5.41;100.00
61119;BME280;51448;51.660;5.824;2024-02-26T09:04:04;100133.78;;;5.42;100.00
61119;BME280;51448;51.660;5.824;2024-02-26T09:06:31;100136.53;;;5.42;100.00
61119;BME280;51448;51.660;5.824;2024-02-26T09:08:59;100135.13;;;5.44;100.00
61119;BME280;51448;51.660;5.824;2024-02-26T09:11:28;100144.75;;;5.42;100.00
61119;BME280;51448;51.660;5.824;2024-02-26T09:13:56;100152.06;;;5.46;100.00
61119;BME280;51448;51.660;5.824;2024-02-26T09:16:24;100143.84;;;5.46;100.00
61119;BME280;51448;51.660;5.824;2024-02-26T09:18:51;100149.00;;;5.48;100.00
61119;BME280;51448;51.660;5.824;2024-02-26T09:21:19;100141.09;;;5.46;100.00
61119;BME280;51448;51.660;5.824;2024-02-26T09:23:51;100154.78;;;5.46;100.00
61119;BME280;51448;51.660;5.824;2024-02-26T09:26:18;100160.56;;;5.45;100.00
61119;BME280;51448;51.660;5.824;2024-02-26T09:28:46;100161.06;;;5.47;100.00
61119;BME280;51448;51.660;5.824;2024-02-26T09:31:15;100163.50;;;5.48;100.00
61119;BME280;51448;51.660;5.824;2024-02-26T09:33:44;100177.69;;;5.50;100.00
61119;BME280;51448;51.660;5.824;2024-02-26T09:36:13;100176.81;;;5.55;100.00
61119;BME280;51448;51.660;5.824;2024-02-26T09:38:41;100178.81;;;5.49;100.00
61119;BME280;51448;51.660;5.824;2024-02-26T09:41:22;100181.84;;;5.48;100.00
61119;BME280;51448;51.660;5.824;2024-02-26T09:43:52;100189.97;;;5.53;100.00
61119;BME280;51448;51.660;5.824;2024-02-26T09:46:25;100196.25;;;5.53;100.00
61119;BME280;51448;51.660;5.824;2024-02-26T09:48:53;100197.66;;;5.51;100.00
61119;BME280;51448;51.660;5.824;2024-02-26T09:51:22;100193.81;;;5.52;100.00
61119;BME280;51448;51.660;5.824;2024-02-26T09:53:54;100204.75;;;5.52;100.00
61119;BME280;51448;51.660;5.824;2024-02-26T09:56:23;100199.28;;;5.52;100.00
61119;BME280;51448;51.660;5.824;2024-02-26T09:58:52;100207.19;;;5.53;100.00
61119;BME280;51448;51.660;5.824;2024-02-26T10:01:22;100210.44;;;5.56;100.00
61119;BME280;51448;51.660;5.824;2024-02-26T10:03:55;100216.44;;;5.58;100.00
61119;BME280;51448;51.660;5.824;2024-02-26T10:06:26;100217.22;;;5.58;100.00
61119;BME280;51448;51.660;5.824;2024-02-26T10:08:55;100229.81;;;5.59;100.00
61119;BME280;51448;51.660;5.824;2024-02-26T10:11:26;100229.22;;;5.62;100.00
61119;BME280;51448;51.660;5.824;2024-02-26T10:13:54;100236.63;;;5.62;100.00
61119;BME280;51448;51.660;5.824;2024-02-26T10:16:22;100236.63;;;5.62;100.00
61119;BME280;51448;51.660;5.824;2024-02-26T10:18:51;100240.16;;;5.62;100.00
61119;BME280;51448;51.660;5.824;2024-02-26T10:21:26;100242.91;;;5.62;100.00
61119;BME280;51448;51.660;5.824;2024-02-26T10:23:55;100245.31;;;5.64;100.00
61119;BME280;51448;51.660;5.824;2024-02-26T10:26:22;100254.88;;;5.66;100.00
61119;BME280;51448;51.660;5.824;2024-02-26T10:28:50;100255.69;;;5.67;100.00
61119;BME280;51448;51.660;5.824;2024-02-26T10:31:22;100269.66;;;5.65;100.00
61119;BME280;51448;51.660;5.824;2024-02-26T10:33:49;100267.94;;;5.69;100.00
61119;BME280;51448;51.660;5.824;2024-02-26T10:36:22;100275.66;;;5.67;100.00
61119;BME280;51448;51.660;5.824;2024-02-26T10:38:54;100276.56;;;5.63;100.00
61119;BME280;51448;51.660;5.824;2024-02-26T10:41:22;100277.88;;;5.65;100.00
61119;BME280;51448;51.660;5.824;2024-02-26T10:43:50;100279.50;;;5.66;100.00
61119;BME280;51448;51.660;5.824;2024-02-26T10:46:19;100284.19;;;5.66;100.00
61119;BME280;51448;51.660;5.824;2024-02-26T10:48:51;100286.91;;;5.66;100.00
61119;BME280;51448;51.660;5.824;2024-02-26T10:51:29;100291.56;;;5.65;100.00
61119;BME280;51448;51.660;5.824;2024-02-26T10:53:58;100299.19;;;5.68;100.00
61119;BME280;51448;51.660;5.824;2024-02-26T10:56:34;100294.00;;;5.67;100.00
61119;BME280;51448;51.660;5.824;2024-02-26T10:59:07;100302.50;;;5.65;100.00
61119;BME280;51448;51.660;5.824;2024-02-26T11:01:36;100298.38;;;5.68;100.00
61119;BME280;51448;51.660;5.824;2024-02-26T11:04:09;100298.69;;;5.66;100.00
61119;BME280;51448;51.660;5.824;2024-02-26T11:06:38;100302.00;;;5.63;100.00
61119;BME280;51448;51.660;5.824;2024-02-26T11:09:06;100313.44;;;5.65;100.00
61119;BME280;51448;51.660;5.824;2024-02-26T11:11:40;100304.97;;;5.67;100.00
61119;BME280;51448;51.660;5.824;2024-02-26T11:14:09;100310.63;;;5.70;100.00
61119;BME280;51448;51.660;5.824;2024-02-26T11:16:40;100311.47;;;5.71;100.00
61119;BME280;51448;51.660;5.824;2024-02-26T11:19:10;100316.09;;;5.70;100.00
61119;BME280;51448;51.660;5.824;2024-02-26T11:21:41;100323.50;;;5.70;100.00
61119;BME280;51448;51.660;5.824;2024-02-26T11:24:14;100320.19;;;5.73;100.00
61119;BME280;51448;51.660;5.824;2024-02-26T11:26:50;100318.84;;;5.70;100.00
61119;BME280;51448;51.660;5.824;2024-02-26T11:29:38;100315.00;;;5.71;100.00
61119;BME280;51448;51.660;5.824;2024-02-26T11:32:10;100322.41;;;5.71;100.00
61119;BME280;51448;51.660;5.824;2024-02-26T11:34:38;100321.00;;;5.73;100.00
61119;BME280;51448;51.660;5.824;2024-02-26T11:37:16;100330.31;;;5.72;100.00
61119;BME280;51448;51.660;5.824;2024-02-26T11:39:45;100321.00;;;5.73;100.00
61119;BME280;51448;51.660;5.824;2024-02-26T11:42:15;100330.31;;;5.72;100.00
61119;BME280;51448;51.660;5.824;2024-02-26T11:44:43;100319.88;;;5.74;100.00
61119;BME280;51448;51.660;5.824;2024-02-26T11:47:12;100322.84;;;5.78;100.00
61119;BME280;51448;51.660;5.824;2024-02-26T11:49:47;100326.69;;;5.77;100.00
61119;BME280;51448;51.660;5.824;2024-02-26T11:52:15;100334.59;;;5.78;100.00
61119;BME280;51448;51.660;5.824;2024-02-26T11:54:50;100329.13;;;5.78;100.00
61119;BME280;51448;51.660;5.824;2024-02-26T12:00:10;100331.06;;;5.78;100.00
61119;BME280;51448;51.660;5.824;2024-02-26T12:05:21;100343.94;;;5.77;100.00
61119;BME280;51448;51.660;5.824;2024-02-26T12:07:55;100348.78;;;5.80;100.00
61119;BME280;51448;51.660;5.824;2024-02-26T12:10:30;100353.44;;;5.80;100.00
61119;BME280;51448;51.660;5.824;2024-02-26T12:13:06;100358.13;;;5.79;100.00
61119;BME280;51448;51.660;5.824;2024-02-26T12:15:37;100361.66;;;5.80;100.00
61119;BME280;51448;51.660;5.824;2024-02-26T12:18:10;100367.44;;;5.78;100.00
61119;BME280;51448;51.660;5.824;2024-02-26T12:20:43;100374.53;;;5.79;100.00
61119;BME280;51448;51.660;5.824;2024-02-26T12:23:17;100382.75;;;5.79;100.00
61119;BME280;51448;51.660;5.824;2024-02-26T12:25:44;100378.09;;;5.80;100.00
61119;BME280;51448;51.660;5.824;2024-02-26T12:28:15;100379.53;;;5.77;100.00
61119;BME280;51448;51.660;5.824;2024-02-26T12:30:43;100393.50;;;5.76;100.00
61119;BME280;51448;51.660;5.824;2024-02-26T12:33:11;100387.44;;;5.79;100.00
61119;BME280;51448;51.660;5.824;2024-02-26T12:35:38;100388.84;;;5.76;100.00
61119;BME280;51448;51.660;5.824;2024-02-26T12:38:06;100394.91;;;5.73;100.00
61119;BME280;51448;51.660;5.824;2024-02-26T12:40:35;100405.06;;;5.73;100.00
61119;BME280;51448;51.660;5.824;2024-02-26T12:43:03;100394.91;;;5.73;100.00
61119;BME280;51448;51.660;5.824;2024-02-26T12:45:30;100412.44;;;5.72;100.00
61119;BME280;51448;51.660;5.824;2024-02-26T12:47:59;100411.91;;;5.70;100.00
61119;BME280;51448;51.660;5.824;2024-02-26T12:50:27;100416.88;;;5.68;100.00
61119;BME280;51448;51.660;5.824;2024-02-26T12:52:55;100432.19;;;5.69;100.00
61119;BME280;51448;51.660;5.824;2024-02-26T12:55:22;100418.31;;;5.66;100.00
61119;BME280;51448;51.660;5.824;2024-02-26T12:57:51;100433.31;;;5.68;100.00
61119;BME280;51448;51.660;5.824;2024-02-26T13:00:23;100430.06;;;5.66;100.00
61119;BME280;51448;51.660;5.824;2024-02-26T13:02:54;100432.81;;;5.66;100.00
61119;BME280;51448;51.660;5.824;2024-02-26T13:05:23;100439.28;;;5.70;100.00
61119;BME280;51448;51.660;5.824;2024-02-26T13:07:52;100449.16;;;5.71;100.00
61119;BME280;51448;51.660;5.824;2024-02-26T13:10:20;100444.25;;;5.68;100.00
61119;BME280;51448;51.660;5.824;2024-02-26T13:12:49;100447.50;;;5.70;100.00